Time;durP1;ratioP1;P1;durP2;ratioP2;P2;SDS_P1;SDS_P2;PMS_P1;PMS_P2;Temp;Humidity;BMP_temperature;BMP_pressure;BME280_temperature;BME280_humidity;BME280_pressure;Samples;Min_cycle;Max_cycle;Signal;HPM_P1;HPM_P2
2023/04/21 00:00:08;;;;;;;29.27;13.07;;;;;;;;;;5107973;28;20031;-60
2023/04/21 00:02:38;;;;;;;19.97;10.80;;;;;;;;;;5105333;28;20452;-59
2023/04/21 00:05:04;;;;;;;26.60;15.10;;;;;;;;;;5114721;28;20127;-60
2023/04/21 00:07:29;;;;;;;24.67;13.97;;;;;;;;;;5115204;28;20051;-60
2023/04/21 00:09:54;;;;;;;23.50;11.13;;;;;;;;;;5112809;28;20053;-59
2023/04/21 00:12:20;;;;;;;22.70;8.90;;;;;;;;;;5115853;28;20028;-60
2023/04/21 00:14:45;;;;;;;22.77;11.50;;;;;;;;;;5110597;27;20028;-60
2023/04/21 00:17:10;;;;;;;14.83;7.57;;;;;;;;;;5113354;28;20059;-60
2023/04/21 00:19:36;;;;;;;19.83;10.20;;;;;;;;;;5121185;27;20023;-60
2023/04/21 00:22:03;;;;;;;15.33;7.00;;;;;;;;;;5115395;27;20519;-59
2023/04/21 00:24:28;;;;;;;14.53;7.27;;;;;;;;;;5115991;27;20027;-59
2023/04/21 00:26:53;;;;;;;21.87;8.57;;;;;;;;;;5130357;27;20467;-60
2023/04/21 00:29:19;;;;;;;16.43;7.87;;;;;;;;;;5119296;27;20026;-60
2023/04/21 00:31:44;;;;;;;16.63;10.50;;;;;;;;;;5125659;27;20019;-60
2023/04/21 00:34:09;;;;;;;18.53;10.53;;;;;;;;;;5115105;27;20078;-60
2023/04/21 00:36:35;;;;;;;18.37;10.57;;;;;;;;;;5121091;27;20063;-60
2023/04/21 00:39:00;;;;;;;22.30;11.27;;;;;;;;;;5113377;27;20051;-60
2023/04/21 00:41:27;;;;;;;17.63;9.13;;;;;;;;;;5116060;28;20028;-60
2023/04/21 00:43:59;;;;;;;17.30;10.77;;;;;;;;;;5114039;27;20463;-60
2023/04/21 00:46:24;;;;;;;16.23;8.90;;;;;;;;;;5115582;27;20031;-60
2023/04/21 00:48:50;;;;;;;15.70;6.70;;;;;;;;;;5111582;28;20441;-60
2023/04/21 00:51:15;;;;;;;16.90;8.03;;;;;;;;;;5122630;27;20019;-60
2023/04/21 00:53:40;;;;;;;13.67;7.33;;;;;;;;;;5118365;27;20102;-60
2023/04/21 00:56:05;;;;;;;15.33;7.83;;;;;;;;;;5122809;27;20535;-62
2023/04/21 00:58:32;;;;;;;23.33;10.90;;;;;;;;;;5114201;28;20118;-60
2023/04/21 01:04:02;;;;;;;11.50;6.17;;;;;;;;;;5064527;22;20055;-62
2023/04/21 01:06:28;;;;;;;18.03;9.50;;;;;;;;;;5034626;28;20125;-62
2023/04/21 01:08:54;;;;;;;14.20;7.27;;;;;;;;;;5036462;28;20014;-62
2023/04/21 01:11:20;;;;;;;15.07;6.77;;;;;;;;;;5034793;28;20017;-62
2023/04/21 01:13:46;;;;;;;15.40;9.10;;;;;;;;;;5032434;28;20021;-62
2023/04/21 01:16:15;;;;;;;11.70;7.10;;;;;;;;;;5034282;28;20022;-62
2023/04/21 01:18:40;;;;;;;14.23;6.60;;;;;;;;;;5034038;28;20586;-62
2023/04/21 01:21:06;;;;;;;18.87;10.37;;;;;;;;;;5034372;28;20084;-62
2023/04/21 01:23:31;;;;;;;15.07;8.87;;;;;;;;;;5032340;28;20079;-62
2023/04/21 01:25:57;;;;;;;15.33;6.93;;;;;;;;;;5033050;28;20473;-61
2023/04/21 01:28:22;;;;;;;11.03;5.23;;;;;;;;;;5034481;28;20035;-62
2023/04/21 01:30:47;;;;;;;14.13;6.00;;;;;;;;;;5036778;28;20388;-62
2023/04/21 01:33:13;;;;;;;15.60;7.87;;;;;;;;;;5036673;28;20133;-61
2023/04/21 01:35:39;;;;;;;19.37;10.70;;;;;;;;;;5033684;28;20033;-62
2023/04/21 01:38:04;;;;;;;12.53;7.13;;;;;;;;;;5031790;28;20389;-62
2023/04/21 01:40:30;;;;;;;16.70;9.57;;;;;;;;;;5031750;28;20052;-62
2023/04/21 01:42:55;;;;;;;19.27;6.23;;;;;;;;;;5038762;28;20025;-62
2023/04/21 01:45:20;;;;;;;14.07;7.87;;;;;;;;;;5032513;28;20499;-62
2023/04/21 01:47:46;;;;;;;16.10;8.43;;;;;;;;;;5043513;28;20040;-62
2023/04/21 01:50:11;;;;;;;12.83;7.20;;;;;;;;;;5037572;28;20017;-62
2023/04/21 01:52:36;;;;;;;18.57;9.40;;;;;;;;;;5034225;28;20026;-63
2023/04/21 01:55:02;;;;;;;12.37;6.17;;;;;;;;;;5033368;28;20022;-61
2023/04/21 01:57:27;;;;;;;15.90;8.90;;;;;;;;;;5032678;28;20071;-62
2023/04/21 01:59:52;;;;;;;11.90;5.73;;;;;;;;;;5043816;28;20013;-62
2023/04/21 02:02:18;;;;;;;14.00;5.97;;;;;;;;;;5033620;28;20025;-62
2023/04/21 02:04:43;;;;;;;13.20;6.63;;;;;;;;;;5054224;28;20025;-62
2023/04/21 02:07:08;;;;;;;13.93;7.63;;;;;;;;;;5051871;28;20354;-62
2023/04/21 02:09:34;;;;;;;9.87;6.27;;;;;;;;;;5057814;28;20021;-62
2023/04/21 02:12:00;;;;;;;13.60;6.47;;;;;;;;;;5050694;28;20099;-62
2023/04/21 02:14:26;;;;;;;13.17;7.03;;;;;;;;;;5056752;28;20039;-62
2023/04/21 02:16:51;;;;;;;15.53;8.20;;;;;;;;;;5058847;28;20029;-62
2023/04/21 02:19:16;;;;;;;16.03;8.10;;;;;;;;;;5048944;28;20108;-62
2023/04/21 02:21:42;;;;;;;16.40;9.40;;;;;;;;;;5056170;28;20508;-66
2023/04/21 02:24:07;;;;;;;12.17;6.47;;;;;;;;;;5050567;28;20024;-66
2023/04/21 02:26:32;;;;;;;13.37;6.13;;;;;;;;;;5050329;28;20481;-66
2023/04/21 02:28:58;;;;;;;19.67;9.97;;;;;;;;;;5057221;28;20047;-67
2023/04/21 02:31:23;;;;;;;14.77;7.60;;;;;;;;;;5053535;28;20025;-67
2023/04/21 02:33:48;;;;;;;17.33;9.10;;;;;;;;;;5054404;28;20021;-66
2023/04/21 02:36:14;;;;;;;19.23;8.87;;;;;;;;;;5052513;28;20024;-66
2023/04/21 02:38:39;;;;;;;13.47;6.80;;;;;;;;;;5050524;28;20036;-66
2023/04/21 02:41:04;;;;;;;15.57;8.30;;;;;;;;;;5051823;28;20431;-66
2023/04/21 02:43:30;;;;;;;16.27;9.93;;;;;;;;;;5056514;28;20022;-66
2023/04/21 02:45:55;;;;;;;15.33;5.70;;;;;;;;;;5052667;28;20033;-66
2023/04/21 02:48:24;;;;;;;10.47;6.03;;;;;;;;;;5054639;28;20234;-66
2023/04/21 02:50:49;;;;;;;17.07;7.83;;;;;;;;;;5049368;28;20025;-67
2023/04/21 02:53:15;;;;;;;14.60;7.20;;;;;;;;;;5052672;28;20017;-66
2023/04/21 02:55:40;;;;;;;14.77;9.17;;;;;;;;;;5054923;28;20033;-67
2023/04/21 02:58:06;;;;;;;16.37;9.93;;;;;;;;;;5055163;28;20024;-67
2023/04/21 03:00:31;;;;;;;20.30;10.03;;;;;;;;;;5053235;28;20028;-66
2023/04/21 03:02:56;;;;;;;10.87;6.00;;;;;;;;;;5049834;28;20103;-66
2023/04/21 03:05:22;;;;;;;17.50;8.90;;;;;;;;;;5054225;28;20062;-66
2023/04/21 03:07:47;;;;;;;15.87;9.87;;;;;;;;;;5052784;28;20060;-67
2023/04/21 03:10:12;;;;;;;20.53;10.80;;;;;;;;;;5051474;28;20427;-66
2023/04/21 03:12:37;;;;;;;19.30;10.60;;;;;;;;;;5051938;28;20017;-67
2023/04/21 03:15:03;;;;;;;17.43;8.43;;;;;;;;;;5048494;28;20028;-66
2023/04/21 03:17:28;;;;;;;18.30;10.60;;;;;;;;;;5052166;28;20020;-66
2023/04/21 03:19:54;;;;;;;21.00;10.70;;;;;;;;;;5052129;28;20096;-67
2023/04/21 03:22:19;;;;;;;19.17;11.00;;;;;;;;;;5051735;28;20009;-67
2023/04/21 03:24:44;;;;;;;18.30;10.27;;;;;;;;;;5051261;28;20469;-66
2023/04/21 03:27:10;;;;;;;19.17;8.67;;;;;;;;;;5049850;28;20112;-67
2023/04/21 03:29:35;;;;;;;11.73;5.10;;;;;;;;;;5047961;28;20048;-66
2023/04/21 03:32:01;;;;;;;19.03;10.70;;;;;;;;;;5057970;28;20013;-66
2023/04/21 03:34:26;;;;;;;21.63;10.97;;;;;;;;;;5055566;28;20013;-67
2023/04/21 03:36:52;;;;;;;16.63;10.50;;;;;;;;;;5052133;28;20021;-66
2023/04/21 03:39:17;;;;;;;17.53;9.77;;;;;;;;;;5063449;28;20025;-66
2023/04/21 03:41:42;;;;;;;14.17;7.90;;;;;;;;;;5054880;28;20078;-66
2023/04/21 03:44:07;;;;;;;16.67;10.13;;;;;;;;;;5066297;28;20029;-65
2023/04/21 03:46:33;;;;;;;15.93;9.47;;;;;;;;;;5056798;28;20032;-66
2023/04/21 03:48:58;;;;;;;18.33;10.83;;;;;;;;;;5069017;28;20464;-67
2023/04/21 03:51:23;;;;;;;17.90;10.60;;;;;;;;;;5065899;28;20031;-68
2023/04/21 03:53:49;;;;;;;19.57;9.10;;;;;;;;;;5055307;28;20025;-67
2023/04/21 03:56:14;;;;;;;18.50;10.00;;;;;;;;;;5051961;28;20021;-68
2023/04/21 03:58:40;;;;;;;17.70;7.93;;;;;;;;;;5055668;28;20067;-68
2023/04/21 04:01:06;;;;;;;20.43;10.07;;;;;;;;;;5057378;28;20073;-68
2023/04/21 04:03:32;;;;;;;17.57;9.47;;;;;;;;;;5053201;28;20049;-67
2023/04/21 04:05:57;;;;;;;14.53;8.60;;;;;;;;;;5045937;28;20033;-68
2023/04/21 04:08:22;;;;;;;14.60;7.73;;;;;;;;;;5053987;28;20032;-69
2023/04/21 04:10:48;;;;;;;20.97;10.50;;;;;;;;;;5053135;28;20104;-68
2023/04/21 04:13:13;;;;;;;20.67;9.20;;;;;;;;;;5044573;28;20387;-67
2023/04/21 04:15:39;;;;;;;16.27;7.90;;;;;;;;;;5058155;28;20025;-67
2023/04/21 04:18:04;;;;;;;18.40;9.67;;;;;;;;;;5051368;28;20048;-67
2023/04/21 04:20:30;;;;;;;18.73;9.67;;;;;;;;;;5053803;28;20025;-67
2023/04/21 04:22:55;;;;;;;12.93;7.27;;;;;;;;;;5055726;28;20029;-67
2023/04/21 04:25:21;;;;;;;12.33;6.43;;;;;;;;;;5068303;28;20035;-67
2023/04/21 04:27:48;;;;;;;12.70;6.87;;;;;;;;;;5055963;28;20021;-67
2023/04/21 04:30:14;;;;;;;19.40;10.13;;;;;;;;;;5054362;28;20013;-68
2023/04/21 04:32:40;;;;;;;19.80;9.57;;;;;;;;;;5055662;28;20038;-69
2023/04/21 04:35:06;;;;;;;18.20;8.63;;;;;;;;;;5059083;28;20452;-68
2023/04/21 04:37:33;;;;;;;15.00;8.40;;;;;;;;;;5070167;28;20020;-68
2023/04/21 04:39:58;;;;;;;15.83;7.47;;;;;;;;;;5054377;28;20435;-67
2023/04/21 04:42:33;;;;;;;17.57;9.63;;;;;;;;;;5057168;28;20012;-67
2023/04/21 04:45:00;;;;;;;14.23;7.20;;;;;;;;;;5057626;28;20491;-67
2023/04/21 04:47:26;;;;;;;15.43;8.50;;;;;;;;;;5056104;28;20021;-67
2023/04/21 04:49:51;;;;;;;15.67;5.80;;;;;;;;;;5044790;28;20021;-66
2023/04/21 04:52:16;;;;;;;12.10;6.57;;;;;;;;;;5061450;28;20051;-67
2023/04/21 04:54:41;;;;;;;13.23;6.23;;;;;;;;;;5062155;28;20025;-67
2023/04/21 04:57:07;;;;;;;11.53;6.10;;;;;;;;;;5067591;28;20384;-67
2023/04/21 04:59:32;;;;;;;13.80;6.90;;;;;;;;;;5056736;28;20033;-66
2023/04/21 05:01:57;;;;;;;13.23;7.37;;;;;;;;;;5056432;28;20029;-67
2023/04/21 05:04:23;;;;;;;12.40;5.77;;;;;;;;;;5062241;28;20066;-66
2023/04/21 05:06:48;;;;;;;14.23;7.37;;;;;;;;;;5053606;28;20107;-67
2023/04/21 05:09:14;;;;;;;15.53;7.53;;;;;;;;;;5057866;28;21634;-67
2023/04/21 05:11:39;;;;;;;10.53;5.73;;;;;;;;;;5047750;28;20424;-67
2023/04/21 05:14:05;;;;;;;12.47;5.87;;;;;;;;;;5039172;28;20024;-66
2023/04/21 05:16:30;;;;;;;14.03;5.03;;;;;;;;;;5051424;28;20484;-66
2023/04/21 05:18:59;;;;;;;9.23;4.80;;;;;;;;;;5040666;28;20037;-66
2023/04/21 05:21:28;;;;;;;9.37;5.27;;;;;;;;;;5033798;28;20499;-66
2023/04/21 05:23:54;;;;;;;8.83;5.17;;;;;;;;;;5039272;28;20099;-67
2023/04/21 05:26:19;;;;;;;12.93;6.03;;;;;;;;;;5053401;28;20027;-66
2023/04/21 05:28:45;;;;;;;11.63;5.23;;;;;;;;;;5054786;28;20021;-66
2023/04/21 05:31:10;;;;;;;9.73;5.30;;;;;;;;;;5054905;28;20413;-66
2023/04/21 05:33:35;;;;;;;10.67;3.67;;;;;;;;;;5066405;28;20437;-66
2023/04/21 05:36:00;;;;;;;12.20;6.30;;;;;;;;;;5056322;28;20099;-66
2023/04/21 05:38:26;;;;;;;14.43;6.57;;;;;;;;;;5073787;28;20021;-66
2023/04/21 05:40:55;;;;;;;7.30;3.97;;;;;;;;;;5073659;28;20425;-67
2023/04/21 05:43:20;;;;;;;14.67;6.97;;;;;;;;;;5066449;28;20021;-66
2023/04/21 05:45:45;;;;;;;10.83;4.10;;;;;;;;;;5067357;28;20028;-66
2023/04/21 05:48:10;;;;;;;12.80;5.70;;;;;;;;;;5073227;28;20094;-66
2023/04/21 05:50:36;;;;;;;6.63;3.50;;;;;;;;;;5074536;28;20062;-66
2023/04/21 05:53:01;;;;;;;13.03;5.10;;;;;;;;;;5068461;28;20464;-67
2023/04/21 05:55:26;;;;;;;14.83;7.27;;;;;;;;;;5073342;28;20021;-67
2023/04/21 05:57:52;;;;;;;12.63;6.23;;;;;;;;;;5072362;28;20074;-67
2023/04/21 06:00:17;;;;;;;13.90;6.73;;;;;;;;;;5071005;28;20020;-66
2023/04/21 06:02:43;;;;;;;14.60;6.53;;;;;;;;;;5064430;28;20041;-66
2023/04/21 06:05:08;;;;;;;14.67;7.00;;;;;;;;;;5073516;28;20446;-67
2023/04/21 06:07:36;;;;;;;8.30;4.37;;;;;;;;;;5073055;28;20020;-66
2023/04/21 06:10:01;;;;;;;9.10;4.47;;;;;;;;;;5073390;28;20095;-66
2023/04/21 06:12:26;;;;;;;10.50;5.47;;;;;;;;;;5072976;28;20502;-66
2023/04/21 06:14:56;;;;;;;12.63;6.20;;;;;;;;;;5041881;28;20462;-66
2023/04/21 06:17:21;;;;;;;10.00;4.50;;;;;;;;;;5054208;28;20373;-66
2023/04/21 06:19:51;;;;;;;7.97;4.37;;;;;;;;;;5066095;28;20032;-66
2023/04/21 06:22:17;;;;;;;11.30;5.53;;;;;;;;;;5074020;28;20486;-67
2023/04/21 06:24:42;;;;;;;8.27;4.23;;;;;;;;;;5072733;28;20107;-66
2023/04/21 06:27:13;;;;;;;8.70;3.97;;;;;;;;;;5070279;28;20027;-67
2023/04/21 06:29:39;;;;;;;13.18;5.75;;;;;;;;;;5056988;28;20493;-67
2023/04/21 06:32:04;;;;;;;8.83;4.33;;;;;;;;;;5065658;28;20104;-67
2023/04/21 06:34:29;;;;;;;9.03;4.50;;;;;;;;;;5063926;28;20522;-67
2023/04/21 06:36:55;;;;;;;11.87;4.20;;;;;;;;;;5060421;28;20530;-67
2023/04/21 06:39:20;;;;;;;11.40;5.00;;;;;;;;;;5064993;28;20149;-67
2023/04/21 06:41:45;;;;;;;7.27;4.00;;;;;;;;;;5054556;28;20031;-66
2023/04/21 06:44:13;;;;;;;11.17;5.20;;;;;;;;;;5068318;28;20026;-66
2023/04/21 06:46:39;;;;;;;13.13;6.27;;;;;;;;;;5062516;28;20078;-66
2023/04/21 06:49:05;;;;;;;11.52;4.65;;;;;;;;;;5053349;28;20031;-67
2023/04/21 06:51:31;;;;;;;11.53;5.17;;;;;;;;;;5054514;28;20104;-66
2023/04/21 06:53:56;;;;;;;12.32;5.72;;;;;;;;;;5066197;28;20021;-66
2023/04/21 06:56:21;;;;;;;20.52;8.07;;;;;;;;;;5067481;28;20020;-66
2023/04/21 06:58:46;;;;;;;7.82;4.07;;;;;;;;;;5071930;28;20468;-67
2023/04/21 07:01:12;;;;;;;8.98;4.20;;;;;;;;;;5073456;28;20169;-65
2023/04/21 07:03:37;;;;;;;12.40;5.40;;;;;;;;;;5056190;28;20087;-66
2023/04/21 07:06:02;;;;;;;9.50;3.33;;;;;;;;;;5068518;28;20028;-66
2023/04/21 07:08:28;;;;;;;13.27;5.23;;;;;;;;;;5066762;28;20040;-67
2023/04/21 07:10:53;;;;;;;10.30;4.55;;;;;;;;;;5068956;28;20495;-66
2023/04/21 07:13:18;;;;;;;9.82;3.72;;;;;;;;;;5051230;28;20013;-66
2023/04/21 07:15:44;;;;;;;10.25;4.47;;;;;;;;;;5053325;28;20028;-66
2023/04/21 07:18:09;;;;;;;8.90;4.25;;;;;;;;;;5053203;28;20472;-66
2023/04/21 07:20:34;;;;;;;12.13;4.85;;;;;;;;;;5052927;28;20025;-66
2023/04/21 07:23:00;;;;;;;11.50;5.43;;;;;;;;;;5052602;28;20025;-66
2023/04/21 07:25:25;;;;;;;7.43;2.90;;;;;;;;;;5053114;28;20426;-67
2023/04/21 07:27:50;;;;;;;12.60;6.13;;;;;;;;;;5052884;28;20013;-66
2023/04/21 07:30:15;;;;;;;8.07;4.15;;;;;;;;;;5068244;28;20028;-66
2023/04/21 07:32:41;;;;;;;11.55;2.78;;;;;;;;;;5071663;28;20096;-66
2023/04/21 07:35:06;;;;;;;8.50;4.32;;;;;;;;;;5066899;28;20045;-67
2023/04/21 07:37:32;;;;;;;13.55;6.10;;;;;;;;;;5070820;28;20039;-67
2023/04/21 07:39:57;;;;;;;13.88;4.45;;;;;;;;;;5061584;28;20059;-67
2023/04/21 07:42:23;;;;;;;9.55;4.60;;;;;;;;;;5069019;28;20031;-66
2023/04/21 07:44:48;;;;;;;12.38;4.60;;;;;;;;;;5067018;28;20064;-66
2023/04/21 07:47:13;;;;;;;14.55;4.50;;;;;;;;;;5043087;28;20103;-67
2023/04/21 07:49:39;;;;;;;15.60;6.38;;;;;;;;;;5052240;28;20013;-66
2023/04/21 07:52:04;;;;;;;12.05;5.75;;;;;;;;;;5052688;28;20021;-67
2023/04/21 07:54:30;;;;;;;11.07;4.32;;;;;;;;;;5069368;28;20078;-66
2023/04/21 07:56:55;;;;;;;6.43;3.35;;;;;;;;;;5071161;28;20476;-66
2023/04/21 07:59:20;;;;;;;8.50;3.25;;;;;;;;;;5071318;28;20473;-66
2023/04/21 08:01:46;;;;;;;7.65;4.45;;;;;;;;;;5071835;28;20021;-66
2023/04/21 08:04:11;;;;;;;9.80;5.22;;;;;;;;;;5058340;28;20051;-66
2023/04/21 08:06:36;;;;;;;8.15;4.57;;;;;;;;;;5070719;28;20024;-66
2023/04/21 08:09:02;;;;;;;7.85;4.35;;;;;;;;;;5068743;28;20056;-66
2023/04/21 08:11:27;;;;;;;8.30;4.00;;;;;;;;;;5071792;28;20079;-66
2023/04/21 08:13:53;;;;;;;9.25;4.18;;;;;;;;;;5071900;28;20028;-66
2023/04/21 08:16:18;;;;;;;16.65;4.20;;;;;;;;;;5054774;28;20074;-66
2023/04/21 08:18:43;;;;;;;5.88;3.30;;;;;;;;;;5061186;28;20123;-66
2023/04/21 08:21:08;;;;;;;12.27;3.78;;;;;;;;;;5067811;28;20032;-66
2023/04/21 08:23:34;;;;;;;10.23;4.82;;;;;;;;;;5071793;28;20028;-66
2023/04/21 08:26:00;;;;;;;7.97;3.67;;;;;;;;;;5058893;28;20017;-67
2023/04/21 08:28:26;;;;;;;6.97;4.05;;;;;;;;;;5061414;28;20534;-67
2023/04/21 08:30:51;;;;;;;7.72;3.15;;;;;;;;;;5072275;28;20025;-66
2023/04/21 08:33:16;;;;;;;7.53;3.67;;;;;;;;;;5071888;28;20437;-66
2023/04/21 08:35:41;;;;;;;9.75;4.20;;;;;;;;;;5057292;28;20021;-66
2023/04/21 08:38:07;;;;;;;7.43;3.95;;;;;;;;;;5075008;28;20103;-67
2023/04/21 08:40:33;;;;;;;10.82;4.93;;;;;;;;;;5076079;28;20095;-67
2023/04/21 08:42:59;;;;;;;7.22;3.28;;;;;;;;;;5073275;28;20029;-66
2023/04/21 08:45:26;;;;;;;9.98;3.75;;;;;;;;;;5065905;28;20035;-66
2023/04/21 08:47:53;;;;;;;9.70;4.72;;;;;;;;;;5070285;28;20020;-66
2023/04/21 08:50:18;;;;;;;8.23;3.45;;;;;;;;;;5065268;28;20043;-67
2023/04/21 08:52:44;;;;;;;10.30;4.30;;;;;;;;;;5054708;28;20056;-66
2023/04/21 08:55:10;;;;;;;16.83;5.93;;;;;;;;;;5074932;28;20041;-67
2023/04/21 08:57:35;;;;;;;9.25;2.80;;;;;;;;;;5072933;28;20024;-67
2023/04/21 09:00:01;;;;;;;15.85;5.88;;;;;;;;;;5074595;28;20085;-66
2023/04/21 09:02:26;;;;;;;13.90;3.58;;;;;;;;;;5067614;28;20048;-67
2023/04/21 09:04:53;;;;;;;6.85;3.58;;;;;;;;;;5068345;28;20097;-66
2023/04/21 09:07:32;;;;;;;7.50;3.53;;;;;;;;;;5067093;28;20052;-67
2023/04/21 09:09:57;;;;;;;10.43;4.47;;;;;;;;;;5074335;28;20020;-67
2023/04/21 09:12:23;;;;;;;6.50;3.08;;;;;;;;;;5042267;28;20018;-67
2023/04/21 09:14:48;;;;;;;10.75;3.85;;;;;;;;;;5047107;28;20384;-66
2023/04/21 09:17:15;;;;;;;7.55;4.07;;;;;;;;;;5055175;28;20134;-66
2023/04/21 09:19:40;;;;;;;11.40;5.32;;;;;;;;;;5055169;28;20067;-67
2023/04/21 09:22:05;;;;;;;7.57;3.35;;;;;;;;;;5054497;28;20029;-66
2023/04/21 09:24:31;;;;;;;9.07;4.15;;;;;;;;;;5054862;28;20420;-67
2023/04/21 09:26:56;;;;;;;11.32;5.15;;;;;;;;;;5054917;28;20059;-67
2023/04/21 09:29:22;;;;;;;8.13;4.38;;;;;;;;;;5061937;28;20463;-67
2023/04/21 09:31:48;;;;;;;7.15;3.92;;;;;;;;;;5075112;28;20070;-67
2023/04/21 09:34:18;;;;;;;11.55;3.53;;;;;;;;;;5070681;28;20408;-66
2023/04/21 09:36:44;;;;;;;6.68;3.72;;;;;;;;;;5034621;28;20029;-66
2023/04/21 09:39:10;;;;;;;13.20;4.43;;;;;;;;;;5066267;28;20024;-66
2023/04/21 09:41:35;;;;;;;12.45;5.18;;;;;;;;;;5074879;28;20040;-66
2023/04/21 09:44:03;;;;;;;11.32;4.65;;;;;;;;;;5073539;28;20021;-66
2023/04/21 09:46:29;;;;;;;8.30;4.38;;;;;;;;;;5067261;28;20048;-66
2023/04/21 09:48:54;;;;;;;9.30;4.38;;;;;;;;;;5062374;28;20020;-66
2023/04/21 09:51:21;;;;;;;7.03;3.17;;;;;;;;;;5074189;28;20031;-66
2023/04/21 09:53:48;;;;;;;10.73;4.18;;;;;;;;;;5060477;28;20103;-66
2023/04/21 09:56:15;;;;;;;17.35;5.20;;;;;;;;;;5068661;28;20020;-66
2023/04/21 09:58:46;;;;;;;5.07;2.30;;;;;;;;;;5073670;28;20504;-66
2023/04/21 10:01:12;;;;;;;10.88;3.90;;;;;;;;;;5073462;28;20029;-66
2023/04/21 10:03:39;;;;;;;9.65;4.30;;;;;;;;;;5056679;28;20103;-66
2023/04/21 10:06:04;;;;;;;13.20;5.28;;;;;;;;;;5053883;28;20047;-66
2023/04/21 10:08:29;;;;;;;10.20;3.83;;;;;;;;;;5052586;28;20100;-66
2023/04/21 10:10:55;;;;;;;14.13;3.22;;;;;;;;;;5069629;28;20035;-66
2023/04/21 10:13:21;;;;;;;7.05;3.30;;;;;;;;;;5068431;28;20103;-66
2023/04/21 10:15:46;;;;;;;7.35;3.15;;;;;;;;;;5072982;28;20035;-66
2023/04/21 10:18:15;;;;;;;7.28;2.95;;;;;;;;;;5051294;28;20028;-66
2023/04/21 10:21:10;;;;;;;9.20;3.10;;;;;;;;;;5066891;28;20029;-66
2023/04/21 10:23:41;;;;;;;10.23;3.47;;;;;;;;;;5042267;28;20036;-66
2023/04/21 10:26:14;;;;;;;5.93;2.30;;;;;;;;;;5054951;28;20043;-66
2023/04/21 10:28:59;;;;;;;4.28;2.05;;;;;;;;;;5072954;28;20533;-65
2023/04/21 10:31:34;;;;;;;10.32;2.42;;;;;;;;;;5069445;28;20021;-65
2023/04/21 10:34:25;;;;;;;7.70;3.53;;;;;;;;;;5053520;28;20522;-65
2023/04/21 10:37:11;;;;;;;5.47;2.30;;;;;;;;;;5030256;28;20033;-66
2023/04/21 10:39:41;;;;;;;7.53;2.55;;;;;;;;;;5059855;28;20436;-66
2023/04/21 10:42:33;;;;;;;4.97;2.17;;;;;;;;;;5066511;28;20020;-65
2023/04/21 10:45:04;;;;;;;5.75;2.72;;;;;;;;;;5068119;28;20028;-66
2023/04/21 10:47:37;;;;;;;6.25;2.15;;;;;;;;;;5072956;28;20174;-66
2023/04/21 10:50:16;;;;;;;7.32;2.60;;;;;;;;;;5064001;28;20070;-66
2023/04/21 10:52:45;;;;;;;8.35;2.50;;;;;;;;;;5063365;28;20442;-66
2023/04/21 10:55:11;;;;;;;5.25;2.30;;;;;;;;;;5051706;28;20013;-66
2023/04/21 10:57:39;;;;;;;9.63;2.78;;;;;;;;;;5071909;28;20021;-66
2023/04/21 11:00:05;;;;;;;9.75;3.67;;;;;;;;;;5072293;28;20017;-66
2023/04/21 11:02:31;;;;;;;5.97;1.95;;;;;;;;;;5066594;28;20055;-66
2023/04/21 11:04:57;;;;;;;5.80;2.58;;;;;;;;;;5060646;28;20528;-66
2023/04/21 11:07:24;;;;;;;4.90;2.30;;;;;;;;;;5065074;28;20041;-66
2023/04/21 11:09:57;;;;;;;5.15;2.45;;;;;;;;;;5064026;28;20104;-66
2023/04/21 11:12:25;;;;;;;4.22;2.20;;;;;;;;;;5066355;28;20380;-66
2023/04/21 11:14:51;;;;;;;4.43;1.85;;;;;;;;;;5049556;28;20020;-66
2023/04/21 11:17:18;;;;;;;4.13;1.95;;;;;;;;;;5052968;28;20441;-66
2023/04/21 11:19:47;;;;;;;8.13;2.42;;;;;;;;;;5052853;28;20028;-66
2023/04/21 11:22:12;;;;;;;5.35;2.10;;;;;;;;;;5052418;28;20078;-66
2023/04/21 11:24:42;;;;;;;6.18;2.53;;;;;;;;;;5053086;28;20473;-66
2023/04/21 11:27:08;;;;;;;11.30;2.50;;;;;;;;;;5053142;28;20025;-66
2023/04/21 11:29:33;;;;;;;4.22;2.05;;;;;;;;;;5052907;28;20361;-66
2023/04/21 11:31:59;;;;;;;6.13;2.65;;;;;;;;;;5065316;28;20103;-67
2023/04/21 11:34:25;;;;;;;5.25;2.05;;;;;;;;;;5069754;28;20471;-66
2023/04/21 11:36:51;;;;;;;8.70;3.05;;;;;;;;;;5072838;28;20434;-65
2023/04/21 11:39:18;;;;;;;9.75;2.75;;;;;;;;;;5066449;28;20020;-66
2023/04/21 11:41:47;;;;;;;5.07;1.95;;;;;;;;;;5065188;28;20029;-65
2023/04/21 11:44:28;;;;;;;3.75;2.10;;;;;;;;;;5070133;28;20469;-65
2023/04/21 11:46:54;;;;;;;6.15;2.38;;;;;;;;;;5048950;28;20026;-66
2023/04/21 11:49:23;;;;;;;6.38;2.30;;;;;;;;;;5051791;28;20107;-66
2023/04/21 11:51:48;;;;;;;7.20;2.90;;;;;;;;;;5054054;28;20100;-67
2023/04/21 11:54:16;;;;;;;4.22;1.95;;;;;;;;;;5056203;28;20095;-65
2023/04/21 11:56:42;;;;;;;3.90;1.90;;;;;;;;;;5051662;28;20109;-65
2023/04/21 11:59:15;;;;;;;5.57;2.50;;;;;;;;;;5054149;28;20053;-65
2023/04/21 12:01:44;;;;;;;5.35;2.60;;;;;;;;;;5056360;28;20049;-66
2023/04/21 12:04:13;;;;;;;8.55;2.63;;;;;;;;;;5054599;28;20053;-66
2023/04/21 12:06:38;;;;;;;8.20;3.13;;;;;;;;;;5055841;28;20037;-66
2023/04/21 12:09:03;;;;;;;5.43;2.42;;;;;;;;;;5055464;28;20021;-66
2023/04/21 12:11:29;;;;;;;6.07;2.38;;;;;;;;;;5054451;28;20085;-65
2023/04/21 12:13:58;;;;;;;5.30;2.53;;;;;;;;;;5059388;28;20048;-67
2023/04/21 12:16:27;;;;;;;4.85;2.03;;;;;;;;;;5053703;28;20464;-66
2023/04/21 12:18:52;;;;;;;5.40;2.35;;;;;;;;;;5062444;28;20028;-65
2023/04/21 12:21:17;;;;;;;5.35;2.50;;;;;;;;;;5076025;28;20032;-65
2023/04/21 12:23:43;;;;;;;5.80;3.10;;;;;;;;;;5062401;28;20033;-66
2023/04/21 12:26:09;;;;;;;5.28;2.60;;;;;;;;;;5075973;28;20035;-65
2023/04/21 12:28:35;;;;;;;5.50;1.90;;;;;;;;;;5072343;28;20039;-66
2023/04/21 12:31:00;;;;;;;10.52;2.80;;;;;;;;;;5073175;28;20114;-66
2023/04/21 12:33:25;;;;;;;9.10;3.50;;;;;;;;;;5057797;28;20103;-67
2023/04/21 12:35:51;;;;;;;4.10;2.55;;;;;;;;;;5063488;28;20079;-67
2023/04/21 12:38:16;;;;;;;6.75;2.35;;;;;;;;;;5073564;28;20482;-67
2023/04/21 12:40:41;;;;;;;8.70;3.00;;;;;;;;;;5067695;28;20483;-67
2023/04/21 12:43:06;;;;;;;7.53;2.58;;;;;;;;;;5052434;28;20553;-65
2023/04/21 12:45:32;;;;;;;7.47;2.83;;;;;;;;;;5054463;28;20033;-66
2023/04/21 12:47:58;;;;;;;5.57;2.75;;;;;;;;;;5071840;28;20029;-66
2023/04/21 12:50:23;;;;;;;4.57;2.47;;;;;;;;;;5054264;28;20435;-67
2023/04/21 12:52:50;;;;;;;6.60;3.00;;;;;;;;;;5053494;28;20032;-67
2023/04/21 12:55:15;;;;;;;8.30;2.83;;;;;;;;;;5055175;28;20620;-66
2023/04/21 12:57:41;;;;;;;9.52;2.65;;;;;;;;;;5055309;28;20021;-66
2023/04/21 13:00:07;;;;;;;5.75;2.28;;;;;;;;;;5054544;28;20021;-66
2023/04/21 13:02:35;;;;;;;6.20;2.97;;;;;;;;;;5058437;28;20068;-67
2023/04/21 13:05:01;;;;;;;6.57;3.53;;;;;;;;;;5063959;28;20038;-67
2023/04/21 13:07:30;;;;;;;7.85;3.67;;;;;;;;;;5073306;28;20043;-67
2023/04/21 13:09:55;;;;;;;8.23;3.17;;;;;;;;;;5070183;28;20047;-65
2023/04/21 13:12:20;;;;;;;4.53;2.53;;;;;;;;;;5063359;28;20029;-66
2023/04/21 13:14:46;;;;;;;6.70;3.28;;;;;;;;;;5053396;28;20020;-67
2023/04/21 13:17:11;;;;;;;5.00;2.55;;;;;;;;;;5054312;28;20029;-67
2023/04/21 13:19:37;;;;;;;6.15;2.55;;;;;;;;;;5054291;28;20074;-67
2023/04/21 13:22:02;;;;;;;7.70;2.83;;;;;;;;;;5054807;28;20035;-67
2023/04/21 13:24:27;;;;;;;6.93;2.80;;;;;;;;;;5055313;28;20021;-67
2023/04/21 13:26:53;;;;;;;5.20;3.13;;;;;;;;;;5054570;28;20358;-68
2023/04/21 13:29:18;;;;;;;7.47;3.40;;;;;;;;;;5054876;28;20048;-68
2023/04/21 13:31:44;;;;;;;6.45;2.97;;;;;;;;;;5057433;28;20045;-67
2023/04/21 13:34:09;;;;;;;9.15;4.18;;;;;;;;;;5065850;28;20537;-68
2023/04/21 13:36:34;;;;;;;5.97;2.63;;;;;;;;;;5070647;28;20380;-68
2023/04/21 13:39:00;;;;;;;9.23;4.10;;;;;;;;;;5057248;28;20036;-69
2023/04/21 13:41:25;;;;;;;6.03;2.88;;;;;;;;;;5045907;28;20024;-68
2023/04/21 13:43:51;;;;;;;5.32;2.80;;;;;;;;;;5048060;28;20035;-67
2023/04/21 13:46:16;;;;;;;7.22;3.05;;;;;;;;;;5044486;28;20036;-65
2023/04/21 13:48:43;;;;;;;5.15;2.53;;;;;;;;;;5047250;28;20021;-67
2023/04/21 13:51:09;;;;;;;4.35;2.30;;;;;;;;;;5041741;28;20029;-66
2023/04/21 13:53:35;;;;;;;5.53;2.03;;;;;;;;;;5054952;28;20025;-67
2023/04/21 13:56:00;;;;;;;8.38;2.90;;;;;;;;;;5064576;28;20035;-66
2023/04/21 13:58:25;;;;;;;7.38;2.88;;;;;;;;;;5065515;28;20043;-67
2023/04/21 14:00:50;;;;;;;6.97;3.00;;;;;;;;;;5054158;28;20029;-68
2023/04/21 14:03:16;;;;;;;9.82;4.35;;;;;;;;;;5055544;28;20036;-63
2023/04/21 14:05:41;;;;;;;4.40;2.45;;;;;;;;;;5064080;28;20502;-62
2023/04/21 14:08:07;;;;;;;6.18;2.28;;;;;;;;;;5061780;28;20050;-63
2023/04/21 14:10:32;;;;;;;5.43;3.03;;;;;;;;;;5046409;28;20085;-62
2023/04/21 14:12:57;;;;;;;7.15;3.53;;;;;;;;;;5044367;28;20017;-62
2023/04/21 14:15:24;;;;;;;5.90;2.97;;;;;;;;;;5068520;28;20431;-62
2023/04/21 14:17:50;;;;;;;6.60;2.45;;;;;;;;;;5068659;28;20017;-62
2023/04/21 14:20:16;;;;;;;8.68;2.47;;;;;;;;;;5049617;28;20063;-62
2023/04/21 14:22:41;;;;;;;5.30;2.13;;;;;;;;;;5056306;28;20743;-63
2023/04/21 14:25:07;;;;;;;8.77;2.45;;;;;;;;;;5052597;28;20024;-62
2023/04/21 14:27:32;;;;;;;7.95;2.95;;;;;;;;;;5071982;28;20020;-62
2023/04/21 14:29:59;;;;;;;7.55;3.15;;;;;;;;;;5049915;28;20025;-62